Time;durP1;ratioP1;P1;durP2;ratioP2;P2;SDS_P1;SDS_P2;PMS_P1;PMS_P2;Temp;Humidity;BMP_temperature;BMP_pressure;BME280_temperature;BME280_humidity;BME280_pressure;Samples;Min_cycle;Max_cycle;Signal;HPM_P1;HPM_P2
2022/03/14 00:00:29;;;;;;;2.60;2.40;;;17.60;47.30;18.60;100938.00;;;;5048772;28;20175;-48
2022/03/14 00:02:55;;;;;;;2.73;2.53;;;17.60;47.30;18.70;100940.00;;;;5048555;28;20201;-46
2022/03/14 00:05:21;;;;;;;3.20;2.40;;;17.60;47.30;18.60;100934.00;;;;5047367;28;20191;-47
2022/03/14 00:07:47;;;;;;;2.70;2.50;;;17.50;47.20;18.60;100941.00;;;;5047907;28;20679;-48
2022/03/14 00:10:15;;;;;;;2.60;2.40;;;17.50;47.30;18.60;100942.00;;;;5047698;28;20170;-47
2022/03/14 00:12:44;;;;;;;3.40;2.40;;;17.50;47.30;18.60;100959.00;;;;5056474;28;20277;-48
2022/03/14 00:15:13;;;;;;;2.60;2.40;;;17.50;47.30;18.60;100965.00;;;;5047127;28;20196;-48
2022/03/14 00:17:40;;;;;;;2.80;2.60;;;17.40;47.30;18.60;100973.00;;;;5046907;28;20688;-48
2022/03/14 00:20:08;;;;;;;2.70;2.50;;;17.40;47.20;18.50;100965.00;;;;5047295;28;20186;-49
2022/03/14 00:22:37;;;;;;;2.67;2.43;;;17.50;47.30;18.50;100975.00;;;;5047245;28;20176;-48
2022/03/14 00:25:06;;;;;;;3.73;2.40;;;17.40;47.20;18.50;100973.00;;;;5047655;28;20200;-47
2022/03/14 00:27:31;;;;;;;2.90;2.50;;;17.40;47.30;18.50;100964.00;;;;5046601;28;20545;-48
2022/03/14 00:29:57;;;;;;;2.73;2.53;;;17.40;47.30;18.50;100971.00;;;;5047095;28;20170;-50
2022/03/14 00:32:24;;;;;;;2.50;2.30;;;17.40;47.30;18.50;100959.00;;;;5047232;28;20177;-45
2022/03/14 00:34:49;;;;;;;2.80;2.40;;;17.40;47.30;18.50;100949.00;;;;5047141;28;20219;-48
2022/03/14 00:37:16;;;;;;;2.60;2.40;;;17.30;47.30;18.50;100951.00;;;;5046729;28;20166;-47
2022/03/14 00:39:41;;;;;;;2.57;2.37;;;17.30;47.40;18.40;100969.00;;;;5047315;28;20175;-46
2022/03/14 00:42:07;;;;;;;2.63;2.43;;;17.30;47.40;18.40;100985.00;;;;5046234;28;20332;-48
2022/03/14 00:44:34;;;;;;;2.30;2.20;;;17.30;47.40;18.40;100963.00;;;;5045521;28;20205;-47
2022/03/14 00:46:59;;;;;;;2.80;2.50;;;17.30;47.40;18.40;100989.00;;;;5046536;28;20344;-47
2022/03/14 00:49:25;;;;;;;2.57;2.37;;;17.30;47.50;18.40;100988.00;;;;5045813;28;20653;-47
2022/03/14 00:51:51;;;;;;;2.70;2.50;;;17.30;47.40;18.40;100993.00;;;;5046757;28;20167;-47
2022/03/14 00:54:16;;;;;;;2.67;2.43;;;17.30;47.50;18.40;100986.00;;;;5047098;28;20185;-47
2022/03/14 00:56:42;;;;;;;2.63;2.43;;;17.30;47.50;18.40;100985.00;;;;5052698;28;20183;-48
2022/03/14 00:59:08;;;;;;;2.50;2.30;;;17.30;47.50;18.40;100997.00;;;;5057172;28;20183;-48
2022/03/14 01:01:33;;;;;;;2.50;2.30;;;17.30;47.50;18.40;101006.00;;;;5056024;28;20609;-48
2022/03/14 01:03:59;;;;;;;2.60;2.40;;;17.20;47.40;18.40;101007.00;;;;5058220;28;20935;-49
2022/03/14 01:06:26;;;;;;;2.53;2.23;;;17.20;47.40;18.30;101003.00;;;;5045786;28;20356;-47
2022/03/14 01:08:51;;;;;;;2.40;2.20;;;17.20;47.50;18.30;101006.00;;;;5045048;28;20179;-47
2022/03/14 01:11:17;;;;;;;2.57;2.37;;;17.20;47.50;18.30;101010.00;;;;5046559;28;20580;-46
2022/03/14 01:13:44;;;;;;;2.40;2.20;;;17.20;47.50;18.30;101023.00;;;;5046136;28;20182;-46
2022/03/14 01:16:10;;;;;;;2.50;2.30;;;17.20;47.50;18.30;101026.00;;;;5046834;28;20209;-48
2022/03/14 01:18:36;;;;;;;2.40;2.20;;;17.20;47.60;18.30;101038.00;;;;5054693;28;20202;-48
2022/03/14 01:21:01;;;;;;;2.27;2.10;;;17.20;47.60;18.30;101039.00;;;;5052280;28;20254;-48
2022/03/14 01:23:27;;;;;;;2.40;2.20;;;17.20;47.60;18.30;101051.00;;;;5046483;28;20907;-47
2022/03/14 01:25:53;;;;;;;2.67;2.47;;;17.20;47.60;18.20;101042.00;;;;5045858;28;20193;-49
2022/03/14 01:28:19;;;;;;;2.40;2.20;;;17.10;47.70;18.20;101051.00;;;;5047239;28;20175;-49
2022/03/14 01:30:44;;;;;;;2.40;2.20;;;17.10;47.80;18.20;101051.00;;;;5046975;28;20254;-48
2022/03/14 01:33:13;;;;;;;2.40;2.20;;;17.10;47.70;18.20;101049.00;;;;5047468;28;20183;-49
2022/03/14 01:35:40;;;;;;;2.20;2.10;;;17.20;47.80;18.20;101052.00;;;;5046851;28;20198;-47
2022/03/14 01:38:06;;;;;;;2.40;2.20;;;17.10;47.80;18.20;101046.00;;;;5047217;28;20284;-47
2022/03/14 01:40:32;;;;;;;2.30;2.10;;;17.10;47.80;18.20;101039.00;;;;5047800;28;20177;-49
2022/03/14 01:42:57;;;;;;;2.60;2.30;;;17.10;47.80;18.20;101060.00;;;;5045213;28;20199;-50
2022/03/14 01:45:24;;;;;;;2.43;2.23;;;17.10;47.80;18.20;101060.00;;;;5045451;28;20197;-48
2022/03/14 01:47:50;;;;;;;2.30;2.20;;;17.10;47.80;18.20;101063.00;;;;5045852;28;20171;-49
2022/03/14 01:50:16;;;;;;;2.30;2.10;;;17.10;47.80;18.20;101066.00;;;;5045887;28;20221;-48
2022/03/14 01:52:42;;;;;;;2.43;2.23;;;17.00;47.80;18.20;101080.00;;;;5046059;28;20178;-47
2022/03/14 01:55:08;;;;;;;2.60;2.40;;;17.00;47.80;18.20;101067.00;;;;5048511;28;20187;-47
2022/03/14 01:57:34;;;;;;;2.40;2.20;;;17.10;47.80;18.20;101073.00;;;;5050483;28;20274;-48
2022/03/14 02:00:00;;;;;;;2.40;2.20;;;17.00;47.80;18.20;101079.00;;;;5051718;28;20595;-47
2022/03/14 02:02:26;;;;;;;2.40;2.20;;;17.00;47.80;18.10;101080.00;;;;5050052;28;20209;-49
2022/03/14 02:04:52;;;;;;;2.40;2.20;;;17.00;47.70;18.10;101078.00;;;;5048542;28;20235;-48
2022/03/14 02:07:18;;;;;;;2.47;2.30;;;17.00;47.80;18.10;101080.00;;;;5049876;28;20197;-45
2022/03/14 02:09:44;;;;;;;2.40;2.20;;;17.00;47.80;18.10;101087.00;;;;5055272;28;20776;-50
2022/03/14 02:12:11;;;;;;;2.13;2.03;;;17.00;47.80;18.10;101083.00;;;;5055229;28;20183;-48
2022/03/14 02:14:39;;;;;;;2.23;2.03;;;17.00;48.40;18.10;101091.00;;;;5049638;28;20714;-48
2022/03/14 02:17:09;;;;;;;2.20;2.10;;;17.00;47.80;18.10;101104.00;;;;5049098;28;20265;-48
2022/03/14 02:19:35;;;;;;;2.40;2.20;;;17.00;47.80;18.10;101101.00;;;;5050014;28;20254;-48
2022/03/14 02:22:03;;;;;;;2.30;2.10;;;16.90;47.60;18.10;101106.00;;;;5049440;28;20170;-48
2022/03/14 02:24:29;;;;;;;2.30;2.10;;;17.00;47.80;18.10;101114.00;;;;5050482;28;20214;-48
2022/03/14 02:26:55;;;;;;;2.13;2.00;;;17.00;47.80;18.10;101103.00;;;;5050516;28;20171;-48
2022/03/14 02:29:21;;;;;;;2.43;2.23;;;17.00;47.70;18.10;101117.00;;;;5049449;28;20205;-47
2022/03/14 02:31:47;;;;;;;2.17;2.07;;;16.90;47.70;18.10;101118.00;;;;5049737;28;20260;-47
2022/03/14 02:34:13;;;;;;;2.40;2.20;;;16.90;47.90;18.00;101119.00;;;;5048847;28;20221;-48
2022/03/14 02:36:39;;;;;;;2.20;2.10;;;16.90;47.90;18.10;101121.00;;;;5047329;28;20178;-48
2022/03/14 02:39:06;;;;;;;2.40;2.20;;;16.90;47.90;18.00;101125.00;;;;5048319;28;20198;-47
2022/03/14 02:41:32;;;;;;;2.07;1.97;;;16.90;47.90;18.00;101125.00;;;;5049154;28;20578;-50
2022/03/14 02:43:59;;;;;;;2.40;2.20;;;16.90;47.90;18.00;101128.00;;;;5049163;28;20218;-49
2022/03/14 02:46:25;;;;;;;2.40;2.20;;;16.90;48.00;18.00;101123.00;;;;5048110;28;20652;-47
2022/03/14 02:48:50;;;;;;;2.03;1.93;;;16.90;48.00;18.00;101133.00;;;;5049038;28;20217;-49
2022/03/14 02:51:16;;;;;;;2.20;2.10;;;16.90;48.00;18.00;101143.00;;;;5049302;28;20197;-47
2022/03/14 02:53:42;;;;;;;2.17;2.00;;;16.90;48.00;18.00;101138.00;;;;5048840;28;20235;-46
2022/03/14 02:56:08;;;;;;;2.20;2.00;;;16.90;48.00;18.00;101139.00;;;;5048169;28;20752;-50
2022/03/14 02:58:38;;;;;;;2.40;2.20;;;16.80;47.90;18.00;101147.00;;;;5048144;28;20201;-49
2022/03/14 03:01:04;;;;;;;2.10;2.00;;;16.90;48.00;18.00;101156.00;;;;5048955;28;20705;-49
2022/03/14 03:03:31;;;;;;;2.10;2.00;;;16.90;48.00;18.00;101155.00;;;;5054667;28;20265;-48
2022/03/14 03:05:58;;;;;;;2.40;2.20;;;16.80;47.90;18.00;101157.00;;;;5051015;28;20190;-49
2022/03/14 03:08:23;;;;;;;2.37;2.17;;;16.80;47.90;17.90;101150.00;;;;5049216;28;20200;-48
2022/03/14 03:10:49;;;;;;;2.10;1.90;;;16.90;48.00;17.90;101167.00;;;;5049639;28;20171;-48
2022/03/14 03:13:15;;;;;;;2.10;2.00;;;16.90;48.00;17.90;101168.00;;;;5049465;28;20174;-49
2022/03/14 03:15:41;;;;;;;2.30;2.10;;;16.80;48.00;17.90;101176.00;;;;5052925;28;20397;-50
2022/03/14 03:18:08;;;;;;;2.00;1.90;;;16.80;48.00;17.90;101177.00;;;;5049366;28;20178;-49
2022/03/14 03:20:34;;;;;;;2.10;2.00;;;16.80;48.00;17.90;101167.00;;;;5048589;28;20178;-49
2022/03/14 03:23:03;;;;;;;2.07;1.97;;;16.80;48.00;17.90;101174.00;;;;5046922;28;20213;-48
2022/03/14 03:25:28;;;;;;;2.20;2.00;;;16.80;48.00;17.90;101182.00;;;;5047639;28;20255;-48
2022/03/14 03:27:54;;;;;;;1.90;1.80;;;16.80;48.10;17.90;101185.00;;;;5048047;28;20585;-50
2022/03/14 03:30:20;;;;;;;2.07;1.97;;;16.80;48.20;17.90;101180.00;;;;5048321;28;20170;-48
2022/03/14 03:32:46;;;;;;;2.13;2.03;;;16.80;48.20;17.90;101188.00;;;;5048257;28;20571;-49
2022/03/14 03:35:11;;;;;;;1.80;1.70;;;16.80;48.20;17.90;101188.00;;;;5047595;28;20252;-49
2022/03/14 03:37:37;;;;;;;1.90;1.80;;;16.70;48.10;17.90;101201.00;;;;5054557;28;20181;-49
2022/03/14 03:40:03;;;;;;;2.00;1.90;;;16.80;48.30;17.90;101194.00;;;;5061836;28;20174;-50
2022/03/14 03:42:29;;;;;;;2.23;2.03;;;16.80;48.30;17.90;101199.00;;;;5056457;28;20185;-48
2022/03/14 03:44:55;;;;;;;2.07;1.97;;;16.70;48.20;17.90;101201.00;;;;5051401;28;20205;-48
2022/03/14 03:47:22;;;;;;;2.20;2.00;;;16.80;48.30;17.90;101210.00;;;;5046835;28;20178;-49
2022/03/14 03:49:47;;;;;;;2.07;1.90;;;16.70;48.30;17.90;101208.00;;;;5048015;28;20224;-49
2022/03/14 03:52:13;;;;;;;2.00;1.90;;;16.70;48.20;17.80;101214.00;;;;5047453;28;20186;-50
2022/03/14 03:54:39;;;;;;;2.00;1.90;;;16.70;48.10;17.80;101213.00;;;;5046995;28;20896;-48
2022/03/14 03:57:06;;;;;;;2.30;2.10;;;16.70;48.30;17.80;101214.00;;;;5046594;28;20169;-47
2022/03/14 03:59:31;;;;;;;2.00;1.90;;;16.70;48.30;17.80;101217.00;;;;5047081;28;20251;-51
2022/03/14 04:01:57;;;;;;;2.10;2.00;;;16.70;48.20;17.80;101218.00;;;;5047276;28;20201;-47
2022/03/14 04:04:23;;;;;;;1.90;1.80;;;16.70;48.30;17.80;101229.00;;;;5046958;28;20190;-49
2022/03/14 04:06:53;;;;;;;1.93;1.83;;;16.70;48.30;17.80;101230.00;;;;5046395;28;20166;-47
2022/03/14 04:09:19;;;;;;;2.20;2.00;;;16.70;48.30;17.80;101232.00;;;;5045349;28;20844;-47
2022/03/14 04:11:45;;;;;;;2.30;2.10;;;16.70;48.30;17.80;101240.00;;;;5047506;28;20273;-49
2022/03/14 04:14:11;;;;;;;1.77;1.67;;;16.60;48.20;17.80;101245.00;;;;5047105;28;20193;-48
2022/03/14 04:16:39;;;;;;;2.03;1.93;;;16.70;48.30;17.80;101249.00;;;;5045389;28;20210;-50
2022/03/14 04:19:05;;;;;;;2.10;2.00;;;16.70;48.30;17.80;101255.00;;;;5048010;28;20832;-49
2022/03/14 04:21:34;;;;;;;2.17;1.97;;;16.70;48.30;17.80;101178.00;;;;5049472;28;20209;-49
2022/03/14 04:24:01;;;;;;;1.90;1.80;;;16.70;48.40;17.80;101257.00;;;;5048391;28;20407;-49
2022/03/14 04:26:26;;;;;;;2.03;1.90;;;16.70;48.30;17.80;101255.00;;;;5045742;28;20194;-49
2022/03/14 04:28:53;;;;;;;2.10;2.00;;;16.70;48.40;17.80;101253.00;;;;5046840;28;20227;-49
2022/03/14 04:31:21;;;;;;;1.90;1.80;;;16.60;48.30;17.70;101263.00;;;;5046446;28;20257;-49
2022/03/14 04:33:46;;;;;;;3.93;2.00;;;16.60;48.50;17.70;101274.00;;;;5046715;28;20240;-48
2022/03/14 04:36:13;;;;;;;4.60;1.90;;;16.60;48.80;17.70;101275.00;;;;5045508;28;20194;-50
2022/03/14 04:38:39;;;;;;;5.03;2.00;;;16.60;48.60;17.70;101277.00;;;;5046392;28;20804;-51
2022/03/14 04:41:04;;;;;;;6.50;2.23;;;16.60;48.40;17.70;101270.00;;;;5046586;28;20174;-49
2022/03/14 04:43:31;;;;;;;3.60;2.40;;;16.60;48.20;17.70;101289.00;;;;5046409;28;20217;-48
2022/03/14 04:45:56;;;;;;;3.33;1.80;;;16.60;48.00;17.70;101290.00;;;;5045725;28;20847;-49
2022/03/14 04:48:23;;;;;;;2.47;1.93;;;16.60;48.20;17.70;101297.00;;;;5046787;28;20178;-49
2022/03/14 04:50:50;;;;;;;2.80;2.00;;;16.60;48.20;17.70;101297.00;;;;5046082;28;20167;-48
2022/03/14 04:53:16;;;;;;;2.43;2.07;;;16.60;48.20;17.70;101299.00;;;;5046718;28;20182;-49
2022/03/14 04:55:42;;;;;;;2.60;2.03;;;16.60;48.20;17.70;101294.00;;;;5048948;28;20194;-51
2022/03/14 04:58:12;;;;;;;2.67;1.93;;;16.50;48.10;17.70;101306.00;;;;5047932;28;20741;-49
2022/03/14 05:00:38;;;;;;;3.43;1.90;;;16.50;48.00;17.70;101299.00;;;;5052466;28;20209;-51
2022/03/14 05:03:04;;;;;;;1.97;1.87;;;16.50;48.00;17.70;101308.00;;;;5050163;28;20194;-49
2022/03/14 05:05:31;;;;;;;3.13;2.00;;;16.50;48.00;17.70;101312.00;;;;5045829;28;20218;-48
2022/03/14 05:07:56;;;;;;;2.93;2.10;;;16.50;47.90;17.70;101311.00;;;;5053447;28;20180;-49
2022/03/14 05:10:23;;;;;;;2.90;2.00;;;16.50;47.90;17.60;101316.00;;;;5051826;28;20180;-50
2022/03/14 05:12:49;;;;;;;3.60;2.10;;;16.50;48.20;17.60;101321.00;;;;5046621;28;20174;-47
2022/03/14 05:15:18;;;;;;;2.77;2.20;;;16.50;48.10;17.60;101326.00;;;;5045573;28;20256;-49
2022/03/14 05:17:47;;;;;;;2.10;2.00;;;16.50;48.00;17.60;101321.00;;;;5045427;28;20740;-50
2022/03/14 05:20:13;;;;;;;3.30;2.07;;;16.50;48.10;17.60;101321.00;;;;5046240;28;20175;-47
2022/03/14 05:22:48;;;;;;;2.37;2.13;;;16.50;48.10;17.60;101326.00;;;;5045925;28;20251;-49
2022/03/14 05:25:15;;;;;;;3.70;2.30;;;16.50;48.10;17.60;101334.00;;;;5045706;28;20744;-51
2022/03/14 05:27:40;;;;;;;2.53;2.33;;;16.50;48.00;17.60;101336.00;;;;5043658;28;20236;-49
2022/03/14 05:30:09;;;;;;;3.87;2.43;;;16.50;48.10;17.60;101339.00;;;;5045973;28;20170;-50
2022/03/14 05:32:40;;;;;;;8.00;2.40;;;16.50;48.10;17.60;101351.00;;;;5045675;28;20181;-46
2022/03/14 05:35:07;;;;;;;3.53;2.43;;;16.50;48.30;17.60;101345.00;;;;5044345;28;20697;-49
2022/03/14 05:37:33;;;;;;;5.30;2.20;;;16.50;48.30;17.60;101360.00;;;;5044956;28;20201;-49
2022/03/14 05:39:58;;;;;;;4.00;2.40;;;16.40;48.20;17.60;101360.00;;;;5045631;28;20820;-49
2022/03/14 05:42:25;;;;;;;7.90;2.50;;;16.40;48.20;17.60;101365.00;;;;5045589;28;20175;-50
2022/03/14 05:44:51;;;;;;;6.83;2.50;;;16.40;48.10;17.60;101374.00;;;;5045293;28;20249;-49
2022/03/14 05:47:18;;;;;;;4.73;2.37;;;16.40;48.20;17.60;101374.00;;;;5048540;28;20177;-48
2022/03/14 05:49:43;;;;;;;4.97;2.40;;;16.40;48.20;17.60;101388.00;;;;5048939;28;20398;-49
2022/03/14 05:52:10;;;;;;;4.23;2.40;;;16.40;48.40;17.60;101391.00;;;;5047320;28;20166;-48
2022/03/14 05:54:36;;;;;;;2.77;2.43;;;16.40;48.40;17.60;101387.00;;;;5045569;28;20308;-49
2022/03/14 05:57:02;;;;;;;6.20;2.37;;;16.40;48.40;17.60;101316.00;;;;5045764;28;20225;-50
2022/03/14 05:59:27;;;;;;;2.40;2.20;;;16.40;48.30;17.50;101397.00;;;;5045385;28;20190;-48
2022/03/14 06:01:53;;;;;;;3.90;2.40;;;16.40;48.40;17.50;101390.00;;;;5046743;28;20185;-49
2022/03/14 06:04:19;;;;;;;2.67;2.30;;;16.40;48.40;17.60;101401.00;;;;5049463;28;20644;-49
2022/03/14 06:06:45;;;;;;;3.60;2.53;;;16.40;48.40;17.50;101394.00;;;;5044535;28;20197;-49
2022/03/14 06:09:11;;;;;;;2.40;2.20;;;16.40;48.50;17.50;101398.00;;;;5045317;28;20236;-49
2022/03/14 06:11:38;;;;;;;2.50;2.30;;;16.40;48.50;17.50;101400.00;;;;5044990;28;20174;-47
2022/03/14 06:14:05;;;;;;;2.40;2.20;;;16.40;48.50;17.50;101410.00;;;;5063026;28;20339;-49
2022/03/14 06:16:31;;;;;;;2.70;2.00;;;16.40;48.50;17.50;101336.00;;;;5066124;28;20197;-48
2022/03/14 06:18:57;;;;;;;2.47;2.10;;;16.30;48.50;17.50;101413.00;;;;5067618;28;20185;-47
2022/03/14 06:21:22;;;;;;;2.47;2.27;;;16.30;48.50;17.50;101422.00;;;;5067233;28;20177;-47
2022/03/14 06:23:48;;;;;;;2.40;2.20;;;16.30;48.60;17.50;101411.00;;;;5067423;28;20698;-48
2022/03/14 06:26:14;;;;;;;2.80;2.30;;;16.40;48.80;17.50;101414.00;;;;5065458;28;20784;-50
2022/03/14 06:28:41;;;;;;;2.40;2.20;;;16.30;48.80;17.50;101418.00;;;;5065606;28;20200;-48
2022/03/14 06:31:09;;;;;;;2.37;2.17;;;16.30;48.70;17.50;101423.00;;;;5065985;28;20178;-48
2022/03/14 06:33:35;;;;;;;2.40;2.20;;;16.30;48.80;17.50;101440.00;;;;5065913;28;20170;-48
2022/03/14 06:36:01;;;;;;;2.50;2.30;;;16.30;48.80;17.50;101445.00;;;;5066168;28;20207;-50
2022/03/14 06:38:27;;;;;;;2.10;2.00;;;16.30;48.80;17.50;101440.00;;;;5071222;28;20178;-48
2022/03/14 06:40:56;;;;;;;2.33;2.10;;;16.30;48.80;17.40;101435.00;;;;5071719;28;20189;-48
2022/03/14 06:43:24;;;;;;;2.23;2.03;;;16.30;48.90;17.40;101439.00;;;;5068533;28;20918;-49
2022/03/14 06:45:51;;;;;;;2.30;2.10;;;16.30;48.90;17.40;101435.00;;;;5068604;28;20200;-46
2022/03/14 06:48:16;;;;;;;2.20;2.00;;;16.20;48.90;17.40;101443.00;;;;5067702;28;20272;-48
2022/03/14 06:50:42;;;;;;;2.23;2.03;;;16.30;49.00;17.40;101459.00;;;;5069651;28;20253;-45
2022/03/14 06:53:08;;;;;;;2.63;2.20;;;16.30;49.00;17.40;101444.00;;;;5070601;28;20795;-46
2022/03/14 06:55:34;;;;;;;2.90;2.27;;;16.30;49.00;17.40;101459.00;;;;5071288;28;20200;-48
2022/03/14 06:57:59;;;;;;;2.20;2.00;;;16.30;49.00;17.40;101472.00;;;;5070671;28;20185;-45
2022/03/14 07:00:26;;;;;;;2.43;2.23;;;16.30;49.00;17.40;101430.00;;;;5071903;28;20193;-46
2022/03/14 07:02:53;;;;;;;2.90;2.20;;;16.30;49.10;17.40;101469.00;;;;5071679;28;20190;-49
2022/03/14 07:05:20;;;;;;;3.30;2.20;;;16.30;49.10;17.40;101468.00;;;;5071330;28;20674;-49
2022/03/14 07:07:47;;;;;;;3.13;2.10;;;16.20;49.10;17.30;101467.00;;;;5070822;28;20174;-47
2022/03/14 07:10:16;;;;;;;2.57;1.90;;;16.20;49.10;17.30;101482.00;;;;5071506;28;20169;-48
2022/03/14 07:12:46;;;;;;;2.30;2.10;;;16.20;49.10;17.30;101483.00;;;;5082160;28;20170;-49
2022/03/14 07:15:20;;;;;;;2.23;1.97;;;16.20;49.10;17.30;101490.00;;;;5072089;28;20201;-46
2022/03/14 07:17:46;;;;;;;2.93;2.10;;;16.20;49.10;17.30;101493.00;;;;5067900;28;20740;-47
2022/03/14 07:20:12;;;;;;;2.13;2.00;;;16.20;49.10;17.30;101494.00;;;;5070679;28;20179;-48
2022/03/14 07:23:06;;;;;;;2.20;2.00;;;16.20;49.10;17.30;101502.00;;;;5065699;28;20531;-48
2022/03/14 07:25:34;;;;;;;2.13;1.97;;;16.20;49.20;17.30;101501.00;;;;5068252;28;20244;-47
2022/03/14 07:28:03;;;;;;;2.40;2.20;;;16.20;49.30;17.30;101516.00;;;;5069811;28;20174;-48
2022/03/14 07:30:28;;;;;;;2.20;2.00;;;16.20;49.30;17.30;101513.00;;;;5070658;28;20189;-49
2022/03/14 07:32:54;;;;;;;2.33;2.13;;;16.20;49.30;17.30;101526.00;;;;5069311;28;20188;-48
2022/03/14 07:35:20;;;;;;;2.07;1.97;;;16.10;49.20;17.30;101521.00;;;;5069334;28;20198;-48
2022/03/14 07:37:46;;;;;;;2.00;1.90;;;16.10;49.20;17.30;101528.00;;;;5054974;28;20178;-49
2022/03/14 07:40:13;;;;;;;2.23;1.90;;;16.10;49.20;17.30;101528.00;;;;5063997;28;20220;-48
2022/03/14 07:42:47;;;;;;;2.47;2.10;;;16.10;49.20;17.30;101535.00;;;;5055267;28;20295;-46
2022/03/14 07:45:14;;;;;;;2.17;1.97;;;16.20;49.40;17.30;101525.00;;;;5054572;28;20190;-48
2022/03/14 07:47:40;;;;;;;2.00;1.90;;;16.20;49.30;17.30;101530.00;;;;5071122;28;20207;-48
2022/03/14 07:50:07;;;;;;;1.97;1.87;;;16.10;49.20;17.30;101534.00;;;;5070766;28;20582;-48
2022/03/14 07:52:33;;;;;;;2.27;1.80;;;16.10;49.20;17.30;101535.00;;;;5069213;28;20173;-50
2022/03/14 07:54:59;;;;;;;1.97;1.80;;;16.10;49.50;17.30;101535.00;;;;5069803;28;20193;-46
2022/03/14 07:57:25;;;;;;;2.13;2.00;;;16.10;49.50;17.30;101541.00;;;;5069370;28;20181;-47
2022/03/14 07:59:52;;;;;;;2.10;1.90;;;16.10;49.50;17.20;101542.00;;;;5069977;28;20196;-47
2022/03/14 08:02:18;;;;;;;1.93;1.80;;;16.10;49.50;17.00;101544.00;;;;5078988;28;20445;-49
2022/03/14 08:04:43;;;;;;;6.37;2.13;;;16.10;49.70;17.20;101548.00;;;;5072063;28;20253;-47
2022/03/14 08:07:09;;;;;;;4.40;2.00;;;16.10;49.80;17.20;101559.00;;;;5069638;28;20165;-47
2022/03/14 08:09:35;;;;;;;3.43;1.90;;;16.10;49.70;17.20;101562.00;;;;5070307;28;20522;-49
2022/03/14 08:12:01;;;;;;;3.40;2.00;;;16.10;49.60;17.20;101566.00;;;;5069383;28;20177;-47
2022/03/14 08:14:27;;;;;;;5.40;1.90;;;16.20;49.80;17.20;101576.00;;;;5049972;28;20206;-49
2022/03/14 08:16:53;;;;;;;4.40;2.00;;;16.40;50.00;17.30;101579.00;;;;5049127;28;20189;-48
2022/03/14 08:19:20;;;;;;;3.70;2.17;;;16.60;50.10;17.30;101579.00;;;;5053796;28;20234;-47
2022/03/14 08:21:49;;;;;;;4.00;2.10;;;16.60;49.70;17.40;101578.00;;;;5050210;28;20543;-49
2022/03/14 08:24:14;;;;;;;3.53;2.00;;;16.80;49.80;17.40;101589.00;;;;5049524;28;20229;-49
2022/03/14 08:26:41;;;;;;;5.87;2.13;;;16.80;49.70;17.50;101584.00;;;;5048466;28;20178;-50
2022/03/14 08:29:08;;;;;;;2.70;1.80;;;16.90;49.60;17.50;101593.00;;;;5053396;28;20651;-48
2022/03/14 08:31:34;;;;;;;3.50;1.80;;;16.90;49.40;17.60;101592.00;;;;5049617;28;20258;-49
2022/03/14 08:34:00;;;;;;;1.93;1.80;;;16.90;49.40;17.60;101597.00;;;;5049136;28;20232;-48
2022/03/14 08:36:27;;;;;;;3.83;1.77;;;17.00;49.40;17.60;101592.00;;;;5048147;28;20194;-48
2022/03/14 08:38:53;;;;;;;4.83;2.00;;;17.00;49.30;17.70;101605.00;;;;5047555;28;20185;-49
2022/03/14 08:41:18;;;;;;;3.20;1.80;;;17.00;49.20;17.70;101604.00;;;;5047854;28;20167;-45
2022/03/14 08:43:44;;;;;;;2.30;2.00;;;17.00;49.10;17.50;101605.00;;;;5049120;28;20841;-47
2022/03/14 08:46:10;;;;;;;1.80;1.67;;;17.10;49.20;17.80;101609.00;;;;5048846;28;20198;-48
2022/03/14 08:48:36;;;;;;;2.20;1.60;;;17.10;49.20;17.80;101619.00;;;;5048785;28;20158;-48
2022/03/14 08:51:02;;;;;;;2.63;1.63;;;17.10;49.10;17.80;101625.00;;;;5047777;28;20177;-49
2022/03/14 08:53:29;;;;;;;2.77;1.87;;;17.20;49.20;17.90;101628.00;;;;5049032;28;20189;-49
2022/03/14 08:55:55;;;;;;;2.70;1.80;;;17.20;49.10;17.90;101634.00;;;;5054259;28;20217;-47
2022/03/14 08:58:22;;;;;;;4.00;2.10;;;17.20;49.10;17.90;101635.00;;;;5047876;28;20240;-50
2022/03/14 09:00:47;;;;;;;2.37;1.90;;;17.20;49.70;17.90;101631.00;;;;5048543;28;20695;-48
2022/03/14 09:03:13;;;;;;;2.87;1.60;;;17.30;50.10;17.90;101637.00;;;;5048536;28;20205;-48
2022/03/14 09:05:39;;;;;;;3.17;1.73;;;17.30;50.20;18.00;101643.00;;;;5048191;28;20190;-48
2022/03/14 09:08:05;;;;;;;2.13;1.90;;;17.30;50.20;17.80;101636.00;;;;5047687;28;20419;-48
2022/03/14 09:10:31;;;;;;;2.87;1.70;;;17.30;50.20;18.00;101641.00;;;;5048223;28;20576;-49
2022/03/14 09:12:58;;;;;;;3.60;1.63;;;17.40;50.90;18.10;101648.00;;;;5048747;28;20196;-48
2022/03/14 09:15:24;;;;;;;2.87;1.60;;;17.40;50.20;18.10;101651.00;;;;5051771;28;20201;-49
2022/03/14 09:17:51;;;;;;;2.10;1.90;;;17.40;50.10;18.10;101644.00;;;;5065487;28;20260;-48
2022/03/14 09:20:19;;;;;;;1.70;1.57;;;17.50;50.20;18.10;101657.00;;;;5068291;28;20157;-47
2022/03/14 09:22:45;;;;;;;1.57;1.47;;;17.50;50.10;18.10;101660.00;;;;5056811;28;20185;-47
2022/03/14 09:25:13;;;;;;;2.43;1.80;;;17.50;49.90;18.20;101652.00;;;;5048300;28;20206;-49
2022/03/14 09:27:39;;;;;;;4.07;1.73;;;17.50;50.30;18.20;101665.00;;;;5047792;28;20166;-47
2022/03/14 09:30:06;;;;;;;9.23;2.20;;;17.50;50.60;18.20;101654.00;;;;5056161;28;20169;-48
2022/03/14 09:32:31;;;;;;;6.53;2.37;;;17.60;50.90;18.20;101664.00;;;;5058188;28;20167;-47
2022/03/14 09:34:59;;;;;;;4.20;2.10;;;17.60;51.10;18.30;101673.00;;;;5050117;28;20686;-47
2022/03/14 09:37:28;;;;;;;3.70;1.80;;;17.60;51.20;18.30;101670.00;;;;5049759;28;20241;-47
2022/03/14 09:39:54;;;;;;;2.73;1.63;;;17.60;51.30;18.30;101674.00;;;;5049217;28;20189;-49
2022/03/14 09:42:21;;;;;;;5.03;1.87;;;17.60;51.40;18.30;101678.00;;;;5049649;28;20205;-50
2022/03/14 09:44:53;;;;;;;3.07;2.00;;;17.70;51.70;18.30;101675.00;;;;5048818;28;20641;-46
2022/03/14 09:47:19;;;;;;;5.17;1.80;;;17.60;51.70;18.30;101686.00;;;;5046278;28;20232;-49
2022/03/14 09:49:45;;;;;;;4.03;2.00;;;17.60;51.70;18.30;101684.00;;;;5047017;28;20174;-47
2022/03/14 09:52:11;;;;;;;1.60;1.50;;;17.60;51.70;18.40;101694.00;;;;5047025;28;20170;-47
2022/03/14 09:54:36;;;;;;;3.03;1.83;;;17.60;51.70;18.40;101699.00;;;;5047277;28;20259;-48
2022/03/14 09:57:03;;;;;;;3.60;1.80;;;17.60;51.60;18.40;101702.00;;;;5045812;28;20174;-47
2022/03/14 09:59:28;;;;;;;3.33;1.90;;;17.60;51.60;18.40;101710.00;;;;5047908;28;20187;-47
2022/03/14 10:01:54;;;;;;;4.13;1.80;;;17.60;51.70;18.40;101708.00;;;;5031932;28;20193;-45
2022/03/14 10:04:20;;;;;;;4.47;1.80;;;17.60;51.50;18.40;101716.00;;;;5047702;28;20206;-48
2022/03/14 10:06:45;;;;;;;3.57;1.70;;;17.60;51.50;18.40;101723.00;;;;5047375;28;20175;-46
2022/03/14 10:09:11;;;;;;;6.37;2.17;;;17.50;51.30;18.40;101717.00;;;;5047976;28;20166;-46
2022/03/14 10:11:37;;;;;;;2.87;1.93;;;17.50;51.30;18.30;101719.00;;;;5055896;28;20174;-49
2022/03/14 10:14:05;;;;;;;4.40;1.93;;;17.40;51.20;18.30;101730.00;;;;5064601;28;20182;-47
2022/03/14 10:16:32;;;;;;;7.00;1.93;;;17.40;51.10;18.30;101724.00;;;;5067657;28;20205;-47
2022/03/14 10:19:01;;;;;;;3.03;2.03;;;17.30;51.00;18.30;101728.00;;;;5050542;28;20186;-48
2022/03/14 10:21:37;;;;;;;2.70;1.97;;;17.40;51.10;18.30;101735.00;;;;5051286;28;20309;-46
2022/03/14 10:24:11;;;;;;;2.43;1.90;;;17.40;51.00;18.30;101732.00;;;;5057782;28;20778;-49
2022/03/14 10:26:41;;;;;;;2.33;1.83;;;17.30;50.90;18.30;101738.00;;;;5057891;28;20192;-48
2022/03/14 10:29:09;;;;;;;3.53;1.80;;;17.30;50.90;18.20;101735.00;;;;5067199;28;20196;-45
2022/03/14 10:31:45;;;;;;;3.30;1.80;;;17.30;51.40;18.20;101727.00;;;;5057449;28;20235;-48
2022/03/14 10:34:13;;;;;;;2.00;1.80;;;17.30;51.50;18.20;101739.00;;;;5071806;28;20174;-48
2022/03/14 10:36:45;;;;;;;4.53;1.80;;;17.30;51.50;18.20;101753.00;;;;5071019;28;20178;-47
2022/03/14 10:39:22;;;;;;;3.37;1.70;;;17.30;51.50;18.20;101745.00;;;;5072095;28;20235;-47
2022/03/14 10:42:11;;;;;;;3.47;1.80;;;17.40;51.50;18.20;101751.00;;;;5071906;28;20254;-48
2022/03/14 10:44:41;;;;;;;4.60;2.00;;;17.40;51.40;18.20;101756.00;;;;5071008;28;20224;-48